createdAt,value
2019-02-24T00:01:15.001Z,6.40
2019-02-24T00:03:45.619Z,6.37
2019-02-24T00:06:16.112Z,6.31
2019-02-24T00:08:47.197Z,6.41
2019-02-24T00:11:17.668Z,6.34
2019-02-24T00:13:48.169Z,6.32
2019-02-24T00:16:18.722Z,6.30
2019-02-24T00:18:49.639Z,6.29
2019-02-24T00:21:20.442Z,6.30
2019-02-24T00:23:51.243Z,6.20
2019-02-24T00:26:21.725Z,6.17
2019-02-24T00:28:52.269Z,6.17
2019-02-24T00:31:22.902Z,6.18
2019-02-24T00:33:53.385Z,6.22
2019-02-24T00:36:23.878Z,6.25
2019-02-24T00:38:54.693Z,6.34
2019-02-24T00:41:25.309Z,6.33
2019-02-24T00:43:55.813Z,6.31
2019-02-24T00:46:26.670Z,6.35
2019-02-24T00:48:57.183Z,6.33
2019-02-24T00:51:27.671Z,6.28
2019-02-24T00:53:58.430Z,6.34
2019-02-24T00:56:28.945Z,6.24
2019-02-24T00:58:59.433Z,6.23
2019-02-24T01:01:30.079Z,6.27
2019-02-24T01:04:00.542Z,6.29
2019-02-24T01:06:31.025Z,6.27
2019-02-24T01:09:02.107Z,6.27
2019-02-24T01:11:32.610Z,6.19
2019-02-24T01:14:03.401Z,6.24
2019-02-24T01:16:34.236Z,6.23
2019-02-24T01:19:04.960Z,6.22
2019-02-24T01:21:35.713Z,6.17
2019-02-24T01:24:06.293Z,6.16
2019-02-24T01:26:37.056Z,6.18
2019-02-24T01:29:07.560Z,6.16
2019-02-24T01:31:38.133Z,6.19
2019-02-24T01:34:08.617Z,6.19
2019-02-24T01:36:39.337Z,6.16
2019-02-24T01:39:10.085Z,6.23
2019-02-24T01:41:40.619Z,6.19
2019-02-24T01:44:11.151Z,6.17
2019-02-24T01:46:41.952Z,6.17
2019-02-24T01:49:12.444Z,6.12
2019-02-24T01:51:42.942Z,6.12
2019-02-24T01:54:13.480Z,6.12
2019-02-24T01:56:44.502Z,6.13
2019-02-24T01:59:15.213Z,6.09
2019-02-24T02:01:45.761Z,6.08
2019-02-24T02:04:16.328Z,6.08
2019-02-24T02:06:47.076Z,5.97
2019-02-24T02:09:17.589Z,5.95
2019-02-24T02:11:48.101Z,5.93
2019-02-24T02:14:18.853Z,5.95
2019-02-24T02:16:49.703Z,5.87
2019-02-24T02:19:20.414Z,5.92
2019-02-24T02:21:51.176Z,5.85
2019-02-24T02:24:21.683Z,5.89
2019-02-24T02:26:52.166Z,5.96
2019-02-24T02:29:22.644Z,5.93
2019-02-24T02:31:53.205Z,5.99
2019-02-24T02:34:23.944Z,5.93
2019-02-24T02:36:54.977Z,5.95
2019-02-24T02:39:25.502Z,5.92
2019-02-24T02:41:56.053Z,5.90
2019-02-24T02:44:27.397Z,5.97
2019-02-24T02:46:57.916Z,5.90
2019-02-24T02:49:28.409Z,5.94
2019-02-24T02:51:58.903Z,5.90
2019-02-24T02:54:29.649Z,5.90
2019-02-24T02:57:00.128Z,5.88
2019-02-24T02:59:30.655Z,5.79
2019-02-24T03:02:01.477Z,5.77
2019-02-24T03:04:32.084Z,5.78
2019-02-24T03:07:13.992Z,5.85
2019-02-24T03:09:44.499Z,5.73
2019-02-24T03:12:15.003Z,5.72
2019-02-24T03:14:45.505Z,5.73
2019-02-24T03:17:15.989Z,5.76
2019-02-24T03:19:46.734Z,5.83
2019-02-24T03:22:17.285Z,5.84
2019-02-24T03:24:48.029Z,5.88
2019-02-24T03:27:18.537Z,5.92
2019-02-24T03:29:49.151Z,5.89
2019-02-24T03:32:19.653Z,5.89
2019-02-24T03:34:50.179Z,5.93
2019-02-24T03:37:20.754Z,5.87
2019-02-24T03:39:51.245Z,5.89
2019-02-24T03:42:22.138Z,5.82
2019-02-24T03:44:52.920Z,5.92
2019-02-24T03:47:23.393Z,5.93
2019-02-24T03:49:54.027Z,5.93
2019-02-24T03:52:24.492Z,5.93
2019-02-24T03:54:55.029Z,5.89
2019-02-24T03:57:25.808Z,5.86
2019-02-24T03:59:56.565Z,5.87
2019-02-24T04:02:27.040Z,5.86
2019-02-24T04:04:57.772Z,5.92
2019-02-24T04:07:28.485Z,5.89
2019-02-24T04:09:59.249Z,5.92
2019-02-24T04:12:29.799Z,5.92
2019-02-24T04:15:00.340Z,5.90
2019-02-24T04:17:30.767Z,5.81
2019-02-24T04:20:01.339Z,5.85
2019-02-24T04:22:31.788Z,5.89
2019-02-24T04:25:03.019Z,5.86
2019-02-24T04:27:34.437Z,5.83
2019-02-24T04:30:05.188Z,5.79
2019-02-24T04:32:35.671Z,5.85
2019-02-24T04:35:06.507Z,5.76
2019-02-24T04:37:37.213Z,5.76
2019-02-24T04:40:07.917Z,5.76
2019-02-24T04:42:38.631Z,5.75
2019-02-24T04:45:09.125Z,5.68
2019-02-24T04:47:39.895Z,5.75
2019-02-24T04:50:10.420Z,5.73
2019-02-24T04:52:40.933Z,5.70
2019-02-24T04:55:11.428Z,5.69
2019-02-24T04:57:42.486Z,5.62
2019-02-24T05:00:14.194Z,5.62
2019-02-24T05:02:44.638Z,5.58
2019-02-24T05:05:15.287Z,5.63
2019-02-24T05:07:45.792Z,5.53
2019-02-24T05:10:16.294Z,5.54
2019-02-24T05:12:46.834Z,5.56
2019-02-24T05:15:17.318Z,5.53
2019-02-24T05:17:47.802Z,5.57
2019-02-24T05:20:18.296Z,5.48
2019-02-24T05:22:49.060Z,5.49
2019-02-24T05:25:19.536Z,5.45
2019-02-24T05:27:50.073Z,5.48
2019-02-24T05:30:20.560Z,5.53
2019-02-24T05:32:51.080Z,5.46
2019-02-24T05:35:21.593Z,5.51
2019-02-24T05:37:52.633Z,5.48
2019-02-24T05:40:23.169Z,5.50
2019-02-24T05:42:53.767Z,5.48
2019-02-24T05:45:24.338Z,5.52
2019-02-24T05:47:55.109Z,5.48
2019-02-24T05:50:25.646Z,5.47
2019-02-24T05:52:56.179Z,5.40
2019-02-24T05:55:26.743Z,5.42
2019-02-24T05:57:57.808Z,5.37
2019-02-24T06:00:28.542Z,5.39
2019-02-24T06:02:59.047Z,5.35
2019-02-24T06:05:29.557Z,5.25
2019-02-24T06:08:00.182Z,5.25
2019-02-24T06:10:30.981Z,5.27
2019-02-24T06:13:01.804Z,5.30
2019-02-24T06:15:32.549Z,5.27
2019-02-24T06:18:03.578Z,5.26
2019-02-24T06:20:34.078Z,5.25
2019-02-24T06:23:04.850Z,5.27
2019-02-24T06:25:35.351Z,5.19
2019-02-24T06:28:05.917Z,5.16
2019-02-24T06:30:36.623Z,5.16
2019-02-24T06:33:07.102Z,5.16
2019-02-24T06:35:37.615Z,5.16
2019-02-24T06:38:08.096Z,5.14
2019-02-24T06:40:38.605Z,5.14
2019-02-24T06:43:09.220Z,5.18
2019-02-24T06:45:41.218Z,5.17
2019-02-24T06:48:11.714Z,5.10
2019-02-24T06:50:54.947Z,5.14
2019-02-24T06:53:25.950Z,5.16
2019-02-24T06:55:56.759Z,5.20
2019-02-24T06:58:27.280Z,5.30
2019-02-24T07:00:58.107Z,5.55
2019-02-24T07:03:28.585Z,5.66
2019-02-24T07:05:59.132Z,5.84
2019-02-24T07:08:29.882Z,5.95
2019-02-24T07:11:00.939Z,6.08
2019-02-24T07:13:31.807Z,6.03
2019-02-24T07:16:03.127Z,6.14
2019-02-24T07:18:33.592Z,6.15
2019-02-24T07:21:04.823Z,6.35
2019-02-24T07:23:36.548Z,6.37
2019-02-24T07:26:07.341Z,6.73
2019-02-24T07:28:37.974Z,6.92
2019-02-24T07:31:08.472Z,6.51
2019-02-24T07:33:38.999Z,6.79
2019-02-24T07:36:09.579Z,6.95
2019-02-24T07:38:40.105Z,7.05
2019-02-24T07:41:10.574Z,7.39
2019-02-24T07:43:41.390Z,7.03
2019-02-24T07:46:12.646Z,7.36
2019-02-24T07:48:43.227Z,7.18
2019-02-24T07:51:13.760Z,7.11
2019-02-24T07:53:44.228Z,7.56
2019-02-24T07:56:14.710Z,7.71
2019-02-24T07:58:45.295Z,8.16
2019-02-24T08:01:16.055Z,8.22
2019-02-24T08:03:46.920Z,8.33
2019-02-24T08:06:17.477Z,8.25
2019-02-24T08:08:48.049Z,8.61
2019-02-24T08:11:18.762Z,8.74
2019-02-24T08:13:49.286Z,8.67
2019-02-24T08:16:19.789Z,9.11
2019-02-24T08:18:51.980Z,9.68
2019-02-24T08:21:22.655Z,9.91
2019-02-24T08:23:53.677Z,10.15
2019-02-24T08:26:24.176Z,10.49
2019-02-24T08:28:54.709Z,10.13
2019-02-24T08:31:25.434Z,10.19
2019-02-24T08:33:55.956Z,10.32
2019-02-24T08:36:26.548Z,10.60
2019-02-24T08:38:57.033Z,10.45
2019-02-24T08:41:27.804Z,10.14
2019-02-24T08:43:58.614Z,10.45
2019-02-24T08:46:29.114Z,11.30
2019-02-24T08:48:59.895Z,11.16
2019-02-24T08:51:30.401Z,10.88
2019-02-24T08:54:01.150Z,11.34
2019-02-24T08:56:31.609Z,11.44
2019-02-24T08:59:02.320Z,11.73
2019-02-24T09:01:32.799Z,11.88
2019-02-24T09:04:03.306Z,11.92
2019-02-24T09:06:34.355Z,12.41
2019-02-24T09:09:05.082Z,12.63
2019-02-24T09:11:35.746Z,12.43
2019-02-24T09:14:06.533Z,13.14
2019-02-24T09:16:37.019Z,12.51
2019-02-24T09:19:07.509Z,12.41
2019-02-24T09:21:38.107Z,12.23
2019-02-24T09:24:08.614Z,12.16
2019-02-24T09:26:39.364Z,12.49
2019-02-24T09:29:09.910Z,13.19
2019-02-24T09:31:40.410Z,13.52
2019-02-24T09:34:10.952Z,13.34
2019-02-24T09:36:41.494Z,13.64
2019-02-24T09:39:12.054Z,13.82
2019-02-24T09:41:42.528Z,14.17
2019-02-24T09:44:13.124Z,14.06
2019-02-24T09:46:43.654Z,13.96
2019-02-24T09:49:14.242Z,13.82
2019-02-24T09:51:45.393Z,13.39
2019-02-24T09:54:15.904Z,13.91
2019-02-24T09:56:46.682Z,14.00
2019-02-24T09:59:17.206Z,14.43
2019-02-24T10:01:47.707Z,14.38
2019-02-24T10:04:18.258Z,13.78
2019-02-24T10:06:48.888Z,13.47
2019-02-24T10:09:19.410Z,13.93
2019-02-24T10:11:49.894Z,13.80
2019-02-24T10:14:20.827Z,14.04
2019-02-24T10:16:51.657Z,14.41
2019-02-24T10:19:22.198Z,13.78
2019-02-24T10:21:52.919Z,14.26
2019-02-24T10:24:23.401Z,14.32
2019-02-24T10:26:53.920Z,15.09
2019-02-24T10:29:24.461Z,15.55
2019-02-24T10:31:55.382Z,15.51
2019-02-24T10:34:26.420Z,15.31
2019-02-24T10:36:57.188Z,15.16
2019-02-24T10:39:29.840Z,14.80
2019-02-24T10:42:00.553Z,15.28
2019-02-24T10:44:32.008Z,16.30
2019-02-24T10:47:02.960Z,16.85
2019-02-24T10:49:33.565Z,15.78
2019-02-24T10:52:04.304Z,17.48
2019-02-24T10:54:34.893Z,17.34
2019-02-24T10:57:08.560Z,17.31
2019-02-24T10:59:38.713Z,17.79
2019-02-24T11:02:09.535Z,17.55
2019-02-24T11:04:40.501Z,18.05
2019-02-24T11:07:11.367Z,18.08
2019-02-24T11:09:42.619Z,16.60
2019-02-24T11:12:13.435Z,17.33
2019-02-24T11:14:44.704Z,17.58
2019-02-24T11:17:15.563Z,17.30
2019-02-24T11:19:46.794Z,17.83
2019-02-24T11:22:17.422Z,17.68
2019-02-24T11:24:48.306Z,18.25
2019-02-24T11:27:18.925Z,18.03
2019-02-24T11:29:49.577Z,18.41
2019-02-24T11:32:20.139Z,17.50
2019-02-24T11:34:50.705Z,17.93
2019-02-24T11:37:21.458Z,18.29
2019-02-24T11:39:52.395Z,18.54
2019-02-24T11:42:23.083Z,19.13
2019-02-24T11:44:53.875Z,18.87
2019-02-24T11:47:24.815Z,18.31
2019-02-24T11:49:55.953Z,18.14
2019-02-24T11:52:26.693Z,17.60
2019-02-24T11:54:57.787Z,17.45
2019-02-24T11:57:28.420Z,18.65
2019-02-24T11:59:59.145Z,18.34
2019-02-24T12:02:34.456Z,18.26
2019-02-24T12:05:02.601Z,18.65
2019-02-24T12:07:33.431Z,18.26
2019-02-24T12:10:04.013Z,18.44
2019-02-24T12:12:35.414Z,18.19
2019-02-24T12:15:07.162Z,18.44
2019-02-24T12:17:39.491Z,18.43
2019-02-24T12:20:12.126Z,18.23
2019-02-24T12:22:42.842Z,19.21
2019-02-24T12:25:13.573Z,19.16
2019-02-24T12:27:44.300Z,18.61
2019-02-24T12:30:15.025Z,19.61
2019-02-24T12:32:45.723Z,19.97
2019-02-24T12:35:16.347Z,20.16
2019-02-24T12:37:47.384Z,20.50
2019-02-24T12:40:18.383Z,20.82
2019-02-24T12:42:49.048Z,20.78
2019-02-24T12:45:19.693Z,20.53
2019-02-24T12:47:50.452Z,21.23
2019-02-24T12:50:21.297Z,20.45
2019-02-24T12:52:52.215Z,20.67
2019-02-24T12:55:23.247Z,20.07
2019-02-24T12:57:54.252Z,19.40
2019-02-24T13:00:25.419Z,19.83
2019-02-24T13:02:55.989Z,19.61
2019-02-24T13:05:26.747Z,19.49
2019-02-24T13:07:57.298Z,20.38
2019-02-24T13:10:27.961Z,20.69
2019-02-24T13:12:58.601Z,20.56
2019-02-24T13:15:29.357Z,20.91
2019-02-24T13:18:00.281Z,19.90
2019-02-24T13:20:31.266Z,20.19
2019-02-24T13:23:02.279Z,19.92
2019-02-24T13:25:33.037Z,20.06
2019-02-24T13:28:04.364Z,19.99
2019-02-24T13:30:36.154Z,19.90
2019-02-24T13:33:07.551Z,19.76
2019-02-24T13:35:38.333Z,20.17
2019-02-24T13:38:09.390Z,19.42
2019-02-24T13:40:40.251Z,19.34
2019-02-24T13:43:11.156Z,19.81
2019-02-24T13:45:42.040Z,19.22
2019-02-24T13:48:13.058Z,19.08
2019-02-24T13:50:44.258Z,18.75
2019-02-24T13:53:14.890Z,19.17
2019-02-24T13:55:45.628Z,19.67
2019-02-24T13:58:16.826Z,19.13
2019-02-24T14:00:47.893Z,18.81
2019-02-24T14:03:19.123Z,18.89
2019-02-24T14:05:50.122Z,19.18
2019-02-24T14:08:20.843Z,19.37
2019-02-24T14:10:51.614Z,18.61
2019-02-24T14:13:22.470Z,19.27
2019-02-24T14:15:57.071Z,18.86
2019-02-24T14:18:28.073Z,18.41
2019-02-24T14:20:58.881Z,19.03
2019-02-24T14:23:31.453Z,18.89
2019-02-24T14:26:02.093Z,18.76
2019-02-24T14:28:32.742Z,18.90
2019-02-24T14:31:03.721Z,19.13
2019-02-24T14:33:34.455Z,18.97
2019-02-24T14:36:05.166Z,19.69
2019-02-24T14:38:35.811Z,19.03
2019-02-24T14:41:08.952Z,18.71
2019-02-24T14:43:39.684Z,19.17
2019-02-24T14:46:10.472Z,19.30
2019-02-24T14:48:41.190Z,19.43
2019-02-24T14:51:12.465Z,18.46
2019-02-24T14:53:44.347Z,19.12
2019-02-24T14:56:15.426Z,19.12
2019-02-24T14:58:47.105Z,19.04
2019-02-24T15:01:17.765Z,18.73
2019-02-24T15:03:48.586Z,18.57
2019-02-24T15:06:19.157Z,18.90
2019-02-24T15:08:49.936Z,18.31
2019-02-24T15:11:20.834Z,18.31
2019-02-24T15:13:51.498Z,17.62
2019-02-24T15:16:22.419Z,17.46
2019-02-24T15:18:53.291Z,17.62
2019-02-24T15:21:24.071Z,17.67
2019-02-24T15:23:54.874Z,17.65
2019-02-24T15:26:29.156Z,17.42
2019-02-24T15:28:59.804Z,17.73
2019-02-24T15:31:33.358Z,17.61
2019-02-24T15:34:04.366Z,17.13
2019-02-24T15:36:35.019Z,17.07
2019-02-24T15:39:07.789Z,17.14
2019-02-24T15:41:40.578Z,17.21
2019-02-24T15:44:11.623Z,17.06
2019-02-24T15:46:42.338Z,17.10
2019-02-24T15:49:13.698Z,16.79
2019-02-24T15:51:44.747Z,16.93
2019-02-24T15:54:16.182Z,16.91
2019-02-24T15:56:47.101Z,16.82
2019-02-24T15:59:18.124Z,16.81
2019-02-24T16:01:48.878Z,16.72
2019-02-24T16:04:19.758Z,16.59
2019-02-24T16:06:50.781Z,16.70
2019-02-24T16:09:21.415Z,16.50
2019-02-24T16:11:52.371Z,16.57
2019-02-24T16:14:23.289Z,16.53
2019-02-24T16:16:54.440Z,16.51
2019-02-24T16:19:25.319Z,16.34
2019-02-24T16:21:55.995Z,16.24
2019-02-24T16:24:26.825Z,16.18
2019-02-24T16:26:59.001Z,16.06
2019-02-24T16:29:30.265Z,15.98
2019-02-24T16:32:01.127Z,15.89
2019-02-24T16:34:32.152Z,15.96
2019-02-24T16:37:02.872Z,15.78
2019-02-24T16:39:33.553Z,15.87
2019-02-24T16:42:04.558Z,15.72
2019-02-24T16:44:35.252Z,15.73
2019-02-24T16:47:06.054Z,15.68
2019-02-24T16:49:36.993Z,15.65
2019-02-24T16:52:10.095Z,15.68
2019-02-24T16:54:40.936Z,15.66
2019-02-24T16:57:11.671Z,15.50
2019-02-24T16:59:42.182Z,15.33
2019-02-24T17:02:12.936Z,15.18
2019-02-24T17:04:43.455Z,15.09
2019-02-24T17:07:16.847Z,14.94
2019-02-24T17:09:47.376Z,14.85
2019-02-24T17:12:17.870Z,14.83
2019-02-24T17:14:49.672Z,14.72
2019-02-24T17:17:20.333Z,14.60
2019-02-24T17:19:50.979Z,14.62
2019-02-24T17:22:21.862Z,14.69
2019-02-24T17:24:52.738Z,14.69
2019-02-24T17:27:23.348Z,14.63
2019-02-24T17:29:53.864Z,14.53
2019-02-24T17:32:24.672Z,14.44
2019-02-24T17:34:55.406Z,14.40
2019-02-24T17:37:29.285Z,14.31
2019-02-24T17:40:00.093Z,14.17
2019-02-24T17:42:30.729Z,14.02
2019-02-24T17:45:01.854Z,13.85
2019-02-24T17:47:32.443Z,13.71
2019-02-24T17:50:03.321Z,13.61
2019-02-24T17:52:33.948Z,13.47
2019-02-24T17:55:04.927Z,13.35
2019-02-24T17:57:35.521Z,13.27
2019-02-24T18:00:10.193Z,13.33
2019-02-24T18:02:40.756Z,13.46
2019-02-24T18:05:11.989Z,13.50
2019-02-24T18:07:43.306Z,13.51
2019-02-24T18:10:13.935Z,13.49
2019-02-24T18:12:44.460Z,13.36
2019-02-24T18:15:15.156Z,13.29
2019-02-24T18:17:45.976Z,13.25
2019-02-24T18:20:16.881Z,13.25
2019-02-24T18:22:47.449Z,13.33
2019-02-24T18:25:18.007Z,13.23
2019-02-24T18:27:48.771Z,13.18
2019-02-24T18:30:22.120Z,13.21
2019-02-24T18:32:52.687Z,13.20
2019-02-24T18:35:23.347Z,13.27
2019-02-24T18:37:54.025Z,13.18
2019-02-24T18:40:24.582Z,13.21
2019-02-24T18:43:00.209Z,13.10
2019-02-24T18:45:27.694Z,13.13
2019-02-24T18:47:58.477Z,13.14
2019-02-24T18:50:28.996Z,13.09
2019-02-24T18:52:59.877Z,13.06
2019-02-24T18:55:30.480Z,13.11
2019-02-24T18:58:01.584Z,12.92
2019-02-24T19:00:32.648Z,12.84
2019-02-24T19:03:03.627Z,12.69
2019-02-24T19:05:34.395Z,12.57
2019-02-24T19:08:05.732Z,12.54
2019-02-24T19:10:36.267Z,12.51
2019-02-24T19:13:07.326Z,12.61
2019-02-24T19:15:43.463Z,12.64
2019-02-24T19:18:16.097Z,12.68
2019-02-24T19:20:49.681Z,12.83
2019-02-24T19:23:20.438Z,12.80
2019-02-24T19:25:51.681Z,12.78
2019-02-24T19:28:22.496Z,12.66
2019-02-24T19:30:53.007Z,12.61
2019-02-24T19:33:23.561Z,12.53
2019-02-24T19:35:54.108Z,12.43
2019-02-24T19:38:24.623Z,12.32
2019-02-24T19:40:55.143Z,12.23
2019-02-24T19:43:25.772Z,12.17
2019-02-24T19:45:56.296Z,12.02
2019-02-24T19:48:26.848Z,11.87
2019-02-24T19:50:57.684Z,11.72
2019-02-24T19:53:28.959Z,11.57
2019-02-24T19:55:59.742Z,11.48
2019-02-24T19:58:30.675Z,11.38
2019-02-24T20:01:02.168Z,11.30
2019-02-24T20:03:33.492Z,11.23
2019-02-24T20:06:04.028Z,11.11
2019-02-24T20:08:34.501Z,10.97
2019-02-24T20:11:16.678Z,10.88
2019-02-24T20:13:47.616Z,10.78
2019-02-24T20:16:18.250Z,10.70
2019-02-24T20:18:49.424Z,10.59
2019-02-24T20:21:20.023Z,10.52
2019-02-24T20:23:51.100Z,10.48
2019-02-24T20:26:21.893Z,10.41
2019-02-24T20:28:53.013Z,10.33
2019-02-24T20:31:24.261Z,10.25
2019-02-24T20:33:55.341Z,10.19
2019-02-24T20:36:26.166Z,10.10
2019-02-24T20:38:56.724Z,10.04
2019-02-24T20:41:27.807Z,10.00
2019-02-24T20:43:58.417Z,9.99
2019-02-24T20:46:29.335Z,9.97
2019-02-24T20:49:00.419Z,9.93
2019-02-24T20:51:31.429Z,10.11
2019-02-24T20:54:02.442Z,10.39
2019-02-24T20:56:33.357Z,10.65
2019-02-24T20:59:04.713Z,11.13
2019-02-24T21:01:35.767Z,11.14
2019-02-24T21:04:06.321Z,11.23
2019-02-24T21:06:36.888Z,11.27
2019-02-24T21:09:09.793Z,11.36
2019-02-24T21:11:40.376Z,11.36
2019-02-24T21:14:10.925Z,11.33
2019-02-24T21:16:41.944Z,11.29
2019-02-24T21:19:12.626Z,11.46
2019-02-24T21:21:43.109Z,11.38
2019-02-24T21:24:13.723Z,11.40
2019-02-24T21:26:44.251Z,11.42
2019-02-24T21:29:14.998Z,11.34
2019-02-24T21:31:46.162Z,11.40
2019-02-24T21:34:16.989Z,11.43
2019-02-24T21:36:48.430Z,11.41
2019-02-24T21:39:18.981Z,11.38
2019-02-24T21:41:49.740Z,11.43
2019-02-24T21:44:20.215Z,11.29
2019-02-24T21:46:51.149Z,11.23
2019-02-24T21:49:22.066Z,11.19
2019-02-24T21:51:52.547Z,11.07
2019-02-24T21:54:23.361Z,11.07
2019-02-24T21:56:53.883Z,11.03
2019-02-24T21:59:24.375Z,10.90
2019-02-24T22:01:55.011Z,10.87
2019-02-24T22:04:26.071Z,10.85
2019-02-24T22:06:56.791Z,10.78
2019-02-24T22:09:27.378Z,10.72
2019-02-24T22:11:57.867Z,10.65
2019-02-24T22:14:28.409Z,10.60
2019-02-24T22:16:58.933Z,10.63
2019-02-24T22:19:29.428Z,10.60
2019-02-24T22:21:59.902Z,10.51
2019-02-24T22:24:30.755Z,10.53
2019-02-24T22:27:01.492Z,10.54
2019-02-24T22:29:32.621Z,10.44
2019-02-24T22:32:03.390Z,10.46
2019-02-24T22:34:33.882Z,10.41
2019-02-24T22:37:04.358Z,10.33
2019-02-24T22:39:34.932Z,10.38
2019-02-24T22:42:05.679Z,10.28
2019-02-24T22:44:36.429Z,10.25
2019-02-24T22:47:06.992Z,10.23
2019-02-24T22:49:37.529Z,10.11
2019-02-24T22:52:08.264Z,10.15
2019-02-24T22:54:39.058Z,10.16
2019-02-24T22:57:09.579Z,10.08
2019-02-24T22:59:40.047Z,10.07
2019-02-24T23:02:10.857Z,10.08
2019-02-24T23:04:41.694Z,10.00
2019-02-24T23:07:12.272Z,9.93
2019-02-24T23:09:43.011Z,9.86
2019-02-24T23:12:13.500Z,9.82
2019-02-24T23:14:44.816Z,9.76
2019-02-24T23:17:15.499Z,9.69
2019-02-24T23:19:46.233Z,9.67
2019-02-24T23:22:16.955Z,9.60
2019-02-24T23:24:47.498Z,9.60
2019-02-24T23:27:18.221Z,9.65
2019-02-24T23:29:49.253Z,9.54
2019-02-24T23:32:19.834Z,9.48
2019-02-24T23:34:50.293Z,9.60
2019-02-24T23:37:20.755Z,9.52
2019-02-24T23:39:51.254Z,9.43
2019-02-24T23:42:21.712Z,9.38
2019-02-24T23:44:52.221Z,9.46
2019-02-24T23:47:22.832Z,9.45
2019-02-24T23:49:53.300Z,9.52
2019-02-24T23:52:23.811Z,9.54
2019-02-24T23:54:54.378Z,9.54
2019-02-24T23:57:24.880Z,9.49
2019-02-24T23:59:55.665Z,9.45
